sensor_id;sensor_type;location;lat;lon;timestamp;pressure;altitude;pressure_sealevel;temperature;humidity
43770;BME280;6597;52.218;9.882;2023-03-14T00:00:06;98309.66;;;10.84;91.50
43770;BME280;6597;52.218;9.882;2023-03-14T00:02:35;98299.88;;;10.86;92.20
43770;BME280;6597;52.218;9.882;2023-03-14T00:05:02;98282.94;;;10.90;91.93
43770;BME280;6597;52.218;9.882;2023-03-14T00:07:32;98277.81;;;11.00;92.48
43770;BME280;6597;52.218;9.882;2023-03-14T00:10:01;98261.81;;;11.03;92.65
43770;BME280;6597;52.218;9.882;2023-03-14T00:12:29;98244.28;;;11.04;92.73
43770;BME280;6597;52.218;9.882;2023-03-14T00:14:56;98248.69;;;11.03;93.20
43770;BME280;6597;52.218;9.882;2023-03-14T00:17:23;98248.81;;;11.02;93.28
43770;BME280;6597;52.218;9.882;2023-03-14T00:19:50;98264.34;;;11.05;93.68
43770;BME280;6597;52.218;9.882;2023-03-14T00:22:19;98256.13;;;11.09;93.65
43770;BME280;6597;52.218;9.882;2023-03-14T00:24:46;98248.63;;;11.16;92.93
43770;BME280;6597;52.218;9.882;2023-03-14T00:27:12;98245.16;;;11.27;92.97
43770;BME280;6597;52.218;9.882;2023-03-14T00:29:39;98236.19;;;11.29;92.16
43770;BME280;6597;52.218;9.882;2023-03-14T00:32:06;98256.72;;;11.35;92.42
43770;BME280;6597;52.218;9.882;2023-03-14T00:34:32;98272.72;;;11.32;92.38
43770;BME280;6597;52.218;9.882;2023-03-14T00:37:01;98245.16;;;11.27;92.54
43770;BME280;6597;52.218;9.882;2023-03-14T00:39:27;98252.66;;;11.20;93.13
43770;BME280;6597;52.218;9.882;2023-03-14T00:41:54;98271.41;;;11.15;93.34
43770;BME280;6597;52.218;9.882;2023-03-14T00:44:21;98288.91;;;11.04;93.77
43770;BME280;6597;52.218;9.882;2023-03-14T00:46:47;98275.66;;;10.94;94.17
43770;BME280;6597;52.218;9.882;2023-03-14T00:49:14;98285.44;;;10.92;93.58
43770;BME280;6597;52.218;9.882;2023-03-14T00:51:42;98278.16;;;10.84;93.36
43770;BME280;6597;52.218;9.882;2023-03-14T00:54:11;98281.50;;;10.98;93.04
43770;BME280;6597;52.218;9.882;2023-03-14T00:56:38;98269.22;;;10.98;92.81
43770;BME280;6597;52.218;9.882;2023-03-14T00:59:04;98274.13;;;11.03;91.92
43770;BME280;6597;52.218;9.882;2023-03-14T01:01:31;98251.13;;;11.06;91.32
43770;BME280;6597;52.218;9.882;2023-03-14T01:03:57;98231.88;;;10.95;90.47
43770;BME280;6597;52.218;9.882;2023-03-14T01:06:25;98250.03;;;11.09;90.77
43770;BME280;6597;52.218;9.882;2023-03-14T01:08:53;98236.91;;;11.09;90.39
43770;BME280;6597;52.218;9.882;2023-03-14T01:11:23;98226.19;;;11.12;90.07
43770;BME280;6597;52.218;9.882;2023-03-14T01:13:51;98235.13;;;11.09;89.77
43770;BME280;6597;52.218;9.882;2023-03-14T01:16:20;98225.91;;;11.04;90.26
43770;BME280;6597;52.218;9.882;2023-03-14T01:18:47;98224.47;;;11.00;91.16
43770;BME280;6597;52.218;9.882;2023-03-14T01:21:17;98230.31;;;10.92;91.31
43770;BME280;6597;52.218;9.882;2023-03-14T01:23:44;98233.66;;;10.94;91.03
43770;BME280;6597;52.218;9.882;2023-03-14T01:26:13;98235.94;;;10.99;90.75
43770;BME280;6597;52.218;9.882;2023-03-14T01:28:41;98213.25;;;10.98;90.76
43770;BME280;6597;52.218;9.882;2023-03-14T01:31:10;98216.13;;;10.95;90.43
43770;BME280;6597;52.218;9.882;2023-03-14T01:33:36;98199.91;;;10.89;90.11
43770;BME280;6597;52.218;9.882;2023-03-14T01:36:04;98214.94;;;10.87;91.12
43770;BME280;6597;52.218;9.882;2023-03-14T01:38:32;98210.63;;;10.86;90.29
43770;BME280;6597;52.218;9.882;2023-03-14T01:41:00;98221.13;;;10.86;90.13
43770;BME280;6597;52.218;9.882;2023-03-14T01:43:27;98224.81;;;10.84;90.23
43770;BME280;6597;52.218;9.882;2023-03-14T01:46:23;98236.88;;;10.86;90.00
43770;BME280;6597;52.218;9.882;2023-03-14T01:48:55;98237.59;;;10.88;89.65
43770;BME280;6597;52.218;9.882;2023-03-14T01:51:26;98214.94;;;10.87;89.11
43770;BME280;6597;52.218;9.882;2023-03-14T01:53:58;98196.91;;;11.05;87.60
43770;BME280;6597;52.218;9.882;2023-03-14T01:56:27;98196.81;;;11.07;87.92
43770;BME280;6597;52.218;9.882;2023-03-14T01:58:54;98186.31;;;11.07;87.37
43770;BME280;6597;52.218;9.882;2023-03-14T02:01:25;98176.03;;;11.15;86.59
43770;BME280;6597;52.218;9.882;2023-03-14T02:03:54;98180.47;;;11.14;86.82
43770;BME280;6597;52.218;9.882;2023-03-14T02:06:26;98183.81;;;11.16;86.51
43770;BME280;6597;52.218;9.882;2023-03-14T02:08:56;98165.78;;;11.12;86.30
43770;BME280;6597;52.218;9.882;2023-03-14T02:11:28;98177.25;;;11.11;85.91
43770;BME280;6597;52.218;9.882;2023-03-14T02:14:05;98175.81;;;11.07;85.75
43770;BME280;6597;52.218;9.882;2023-03-14T02:16:54;98186.88;;;10.99;86.51
43770;BME280;6597;52.218;9.882;2023-03-14T02:19:39;98197.28;;;10.89;86.94
43770;BME280;6597;52.218;9.882;2023-03-14T02:22:27;98205.16;;;10.89;86.63
43770;BME280;6597;52.218;9.882;2023-03-14T02:25:04;98205.50;;;10.85;86.54
43770;BME280;6597;52.218;9.882;2023-03-14T02:27:34;98208.25;;;10.83;86.42
43770;BME280;6597;52.218;9.882;2023-03-14T02:30:03;98223.28;;;10.81;86.41
43770;BME280;6597;52.218;9.882;2023-03-14T02:32:34;98218.16;;;10.80;86.41
43770;BME280;6597;52.218;9.882;2023-03-14T02:35:06;98197.88;;;10.82;85.65
43770;BME280;6597;52.218;9.882;2023-03-14T02:37:37;98196.09;;;10.82;85.86
43770;BME280;6597;52.218;9.882;2023-03-14T02:40:09;98190.84;;;10.82;85.61
43770;BME280;6597;52.218;9.882;2023-03-14T02:42:39;98183.44;;;10.76;85.85
43770;BME280;6597;52.218;9.882;2023-03-14T02:45:35;98175.69;;;10.75;85.84
43770;BME280;6597;52.218;9.882;2023-03-14T02:48:05;98183.28;;;10.67;86.46
43770;BME280;6597;52.218;9.882;2023-03-14T02:50:35;98174.81;;;10.63;86.44
43770;BME280;6597;52.218;9.882;2023-03-14T02:53:02;98165.63;;;10.57;86.74
43770;BME280;6597;52.218;9.882;2023-03-14T02:55:29;98164.78;;;10.57;86.15
43770;BME280;6597;52.218;9.882;2023-03-14T02:58:00;98146.19;;;10.60;86.11
43770;BME280;6597;52.218;9.882;2023-03-14T03:00:27;98154.41;;;10.67;85.64
43770;BME280;6597;52.218;9.882;2023-03-14T03:02:55;98152.28;;;10.72;85.41
43770;BME280;6597;52.218;9.882;2023-03-14T03:05:22;98146.81;;;10.75;85.19
43770;BME280;6597;52.218;9.882;2023-03-14T03:07:48;98151.81;;;10.78;84.83
43770;BME280;6597;52.218;9.882;2023-03-14T03:10:16;98156.13;;;10.79;85.18
43770;BME280;6597;52.218;9.882;2023-03-14T03:12:43;98142.75;;;10.82;84.52
43770;BME280;6597;52.218;9.882;2023-03-14T03:15:11;98147.06;;;10.83;84.51
43770;BME280;6597;52.218;9.882;2023-03-14T03:17:38;98140.00;;;10.83;83.83
43770;BME280;6597;52.218;9.882;2023-03-14T03:20:05;98133.94;;;10.83;83.62
43770;BME280;6597;52.218;9.882;2023-03-14T03:22:34;98139.19;;;10.83;84.06
43770;BME280;6597;52.218;9.882;2023-03-14T03:25:02;98143.47;;;10.84;83.52
43770;BME280;6597;52.218;9.882;2023-03-14T03:27:30;98134.06;;;10.81;83.11
43770;BME280;6597;52.218;9.882;2023-03-14T03:29:57;98137.28;;;10.85;83.13
43770;BME280;6597;52.218;9.882;2023-03-14T03:32:25;98138.09;;;10.85;83.56
43770;BME280;6597;52.218;9.882;2023-03-14T03:34:52;98140.84;;;10.84;84.33
43770;BME280;6597;52.218;9.882;2023-03-14T03:37:19;98139.44;;;10.80;84.64
43770;BME280;6597;52.218;9.882;2023-03-14T03:39:45;98125.72;;;10.76;84.45
43770;BME280;6597;52.218;9.882;2023-03-14T03:42:12;98131.78;;;10.77;85.04
43770;BME280;6597;52.218;9.882;2023-03-14T03:44:39;98136.53;;;10.72;85.55
43770;BME280;6597;52.218;9.882;2023-03-14T03:47:05;98133.06;;;10.71;85.87
43770;BME280;6597;52.218;9.882;2023-03-14T03:49:33;98140.22;;;10.69;85.92
43770;BME280;6597;52.218;9.882;2023-03-14T03:52:00;98140.13;;;10.71;85.93
43770;BME280;6597;52.218;9.882;2023-03-14T03:54:27;98150.59;;;10.71;87.45
43770;BME280;6597;52.218;9.882;2023-03-14T03:56:54;98153.69;;;10.53;91.20
43770;BME280;6597;52.218;9.882;2023-03-14T03:59:21;98164.00;;;10.21;95.68
43770;BME280;6597;52.218;9.882;2023-03-14T04:01:47;98180.06;;;9.93;98.27
43770;BME280;6597;52.218;9.882;2023-03-14T04:04:14;98201.72;;;9.71;100.00
43770;BME280;6597;52.218;9.882;2023-03-14T04:06:42;98201.13;;;9.44;100.00
43770;BME280;6597;52.218;9.882;2023-03-14T04:09:10;98183.78;;;9.17;100.00
43770;BME280;6597;52.218;9.882;2023-03-14T04:11:42;98198.03;;;9.00;100.00
43770;BME280;6597;52.218;9.882;2023-03-14T04:14:28;98181.72;;;8.84;100.00
43770;BME280;6597;52.218;9.882;2023-03-14T04:17:09;98166.03;;;8.71;100.00
43770;BME280;6597;52.218;9.882;2023-03-14T04:19:36;98170.44;;;8.58;100.00
43770;BME280;6597;52.218;9.882;2023-03-14T04:22:05;98179.94;;;8.47;100.00
43770;BME280;6597;52.218;9.882;2023-03-14T04:24:37;98171.31;;;8.32;100.00
43770;BME280;6597;52.218;9.882;2023-03-14T04:27:03;98182.41;;;8.23;100.00
43770;BME280;6597;52.218;9.882;2023-03-14T04:29:31;98173.47;;;8.12;100.00
43770;BME280;6597;52.218;9.882;2023-03-14T04:31:57;98177.03;;;8.11;100.00
43770;BME280;6597;52.218;9.882;2023-03-14T04:34:24;98193.63;;;8.10;100.00
43770;BME280;6597;52.218;9.882;2023-03-14T04:36:53;98180.47;;;8.12;100.00
43770;BME280;6597;52.218;9.882;2023-03-14T04:39:27;98176.94;;;8.13;100.00
43770;BME280;6597;52.218;9.882;2023-03-14T04:42:16;98171.72;;;8.13;100.00
43770;BME280;6597;52.218;9.882;2023-03-14T04:44:43;98166.56;;;8.11;100.00
43770;BME280;6597;52.218;9.882;2023-03-14T04:47:11;98164.06;;;8.10;100.00
43770;BME280;6597;52.218;9.882;2023-03-14T04:49:39;98163.13;;;8.11;100.00
43770;BME280;6597;52.218;9.882;2023-03-14T04:52:07;98159.78;;;8.09;100.00
43770;BME280;6597;52.218;9.882;2023-03-14T04:54:37;98160.50;;;8.11;100.00
43770;BME280;6597;52.218;9.882;2023-03-14T04:57:04;98154.69;;;8.20;100.00
43770;BME280;6597;52.218;9.882;2023-03-14T04:59:33;98152.38;;;8.28;100.00
43770;BME280;6597;52.218;9.882;2023-03-14T05:02:11;98149.88;;;8.27;100.00
43770;BME280;6597;52.218;9.882;2023-03-14T05:04:53;98153.84;;;8.20;100.00
43770;BME280;6597;52.218;9.882;2023-03-14T05:07:38;98164.19;;;8.21;100.00
43770;BME280;6597;52.218;9.882;2023-03-14T05:10:26;98158.78;;;8.24;100.00
43770;BME280;6597;52.218;9.882;2023-03-14T05:13:22;98152.19;;;8.31;100.00
43770;BME280;6597;52.218;9.882;2023-03-14T05:16:06;98148.72;;;8.31;100.00
43770;BME280;6597;52.218;9.882;2023-03-14T05:18:54;98143.00;;;8.38;100.00
43770;BME280;6597;52.218;9.882;2023-03-14T05:21:36;98154.41;;;8.37;100.00
43770;BME280;6597;52.218;9.882;2023-03-14T05:24:24;98141.44;;;8.36;100.00
43770;BME280;6597;52.218;9.882;2023-03-14T05:27:01;98136.41;;;8.33;100.00
43770;BME280;6597;52.218;9.882;2023-03-14T05:29:47;98143.72;;;8.28;100.00
43770;BME280;6597;52.218;9.882;2023-03-14T05:32:40;98135.13;;;8.26;100.00
43770;BME280;6597;52.218;9.882;2023-03-14T05:35:15;98126.47;;;8.25;100.00
43770;BME280;6597;52.218;9.882;2023-03-14T05:37:49;98129.06;;;8.25;100.00
43770;BME280;6597;52.218;9.882;2023-03-14T05:40:39;98125.31;;;8.29;100.00
43770;BME280;6597;52.218;9.882;2023-03-14T05:43:13;98121.97;;;8.27;100.00
43770;BME280;6597;52.218;9.882;2023-03-14T05:46:03;98115.06;;;8.26;100.00
43770;BME280;6597;52.218;9.882;2023-03-14T05:48:39;98114.03;;;8.29;100.00
43770;BME280;6597;52.218;9.882;2023-03-14T05:51:20;98112.25;;;8.29;100.00
43770;BME280;6597;52.218;9.882;2023-03-14T05:54:16;98107.84;;;8.30;100.00
43770;BME280;6597;52.218;9.882;2023-03-14T05:57:02;98110.81;;;8.38;100.00
43770;BME280;6597;52.218;9.882;2023-03-14T05:59:46;98107.34;;;8.37;100.00
43770;BME280;6597;52.218;9.882;2023-03-14T06:02:27;98106.31;;;8.40;100.00
43770;BME280;6597;52.218;9.882;2023-03-14T06:05:02;98112.47;;;8.39;100.00
43770;BME280;6597;52.218;9.882;2023-03-14T06:07:29;98108.19;;;8.38;100.00
43770;BME280;6597;52.218;9.882;2023-03-14T06:09:56;98111.13;;;8.33;100.00
43770;BME280;6597;52.218;9.882;2023-03-14T06:12:24;98106.06;;;8.30;100.00
43770;BME280;6597;52.218;9.882;2023-03-14T06:14:51;98118.09;;;8.33;100.00
43770;BME280;6597;52.218;9.882;2023-03-14T06:17:18;98117.09;;;8.35;100.00
43770;BME280;6597;52.218;9.882;2023-03-14T06:19:51;98114.16;;;8.40;100.00
43770;BME280;6597;52.218;9.882;2023-03-14T06:22:18;98112.72;;;8.49;100.00
43770;BME280;6597;52.218;9.882;2023-03-14T06:24:45;98125.97;;;8.58;100.00
43770;BME280;6597;52.218;9.882;2023-03-14T06:27:13;98119.59;;;8.62;100.00
43770;BME280;6597;52.218;9.882;2023-03-14T06:29:40;98116.94;;;8.75;100.00
43770;BME280;6597;52.218;9.882;2023-03-14T06:32:08;98125.84;;;8.85;100.00
43770;BME280;6597;52.218;9.882;2023-03-14T06:34:36;98124.97;;;8.97;99.41
43770;BME280;6597;52.218;9.882;2023-03-14T06:37:03;98130.84;;;9.01;100.00
43770;BME280;6597;52.218;9.882;2023-03-14T06:39:31;98113.97;;;9.05;100.00
43770;BME280;6597;52.218;9.882;2023-03-14T06:42:04;98139.72;;;9.11;100.00
43770;BME280;6597;52.218;9.882;2023-03-14T06:44:31;98135.09;;;9.15;100.00
43770;BME280;6597;52.218;9.882;2023-03-14T06:46:58;98140.00;;;9.19;99.67
43770;BME280;6597;52.218;9.882;2023-03-14T06:49:26;98137.41;;;9.19;99.31
43770;BME280;6597;52.218;9.882;2023-03-14T06:51:54;98139.19;;;9.19;100.00
43770;BME280;6597;52.218;9.882;2023-03-14T06:54:21;98131.97;;;9.10;100.00
43770;BME280;6597;52.218;9.882;2023-03-14T06:56:48;98131.78;;;9.00;100.00
43770;BME280;6597;52.218;9.882;2023-03-14T06:59:15;98135.66;;;8.94;100.00
43770;BME280;6597;52.218;9.882;2023-03-14T07:01:44;98142.06;;;8.90;100.00
43770;BME280;6597;52.218;9.882;2023-03-14T07:04:11;98141.84;;;8.93;100.00
43770;BME280;6597;52.218;9.882;2023-03-14T07:06:43;98142.69;;;8.94;100.00
43770;BME280;6597;52.218;9.882;2023-03-14T07:09:12;98159.94;;;8.96;100.00
43770;BME280;6597;52.218;9.882;2023-03-14T07:11:43;98161.50;;;8.99;100.00
43770;BME280;6597;52.218;9.882;2023-03-14T07:14:09;98151.47;;;8.93;100.00
43770;BME280;6597;52.218;9.882;2023-03-14T07:16:36;98160.16;;;8.93;100.00
43770;BME280;6597;52.218;9.882;2023-03-14T07:19:03;98147.81;;;8.95;100.00
43770;BME280;6597;52.218;9.882;2023-03-14T07:21:30;98153.25;;;8.92;100.00
43770;BME280;6597;52.218;9.882;2023-03-14T07:24:01;98139.75;;;8.98;100.00
43770;BME280;6597;52.218;9.882;2023-03-14T07:26:30;98143.50;;;8.94;100.00
43770;BME280;6597;52.218;9.882;2023-03-14T07:28:56;98140.38;;;8.89;100.00
43770;BME280;6597;52.218;9.882;2023-03-14T07:31:23;98142.38;;;8.73;100.00
43770;BME280;6597;52.218;9.882;2023-03-14T07:33:51;98136.22;;;8.74;100.00
43770;BME280;6597;52.218;9.882;2023-03-14T07:36:19;98125.44;;;8.79;100.00
43770;BME280;6597;52.218;9.882;2023-03-14T07:38:46;98123.44;;;8.82;100.00
43770;BME280;6597;52.218;9.882;2023-03-14T07:41:33;98118.94;;;8.84;100.00
43770;BME280;6597;52.218;9.882;2023-03-14T07:44:18;98119.63;;;9.12;100.00
43770;BME280;6597;52.218;9.882;2023-03-14T07:46:45;98115.41;;;9.22;100.00
43770;BME280;6597;52.218;9.882;2023-03-14T07:49:11;98112.69;;;9.23;100.00
43770;BME280;6597;52.218;9.882;2023-03-14T07:51:38;98114.47;;;9.23;100.00
43770;BME280;6597;52.218;9.882;2023-03-14T07:54:04;98105.31;;;9.28;100.00
43770;BME280;6597;52.218;9.882;2023-03-14T07:56:33;98109.56;;;9.42;100.00
43770;BME280;6597;52.218;9.882;2023-03-14T07:58:59;98109.63;;;9.53;100.00
43770;BME280;6597;52.218;9.882;2023-03-14T08:01:26;98104.88;;;9.58;100.00
43770;BME280;6597;52.218;9.882;2023-03-14T08:03:53;98105.88;;;9.68;100.00
43770;BME280;6597;52.218;9.882;2023-03-14T08:06:19;98102.06;;;9.73;100.00
43770;BME280;6597;52.218;9.882;2023-03-14T08:08:46;98111.78;;;9.83;100.00
43770;BME280;6597;52.218;9.882;2023-03-14T08:11:12;98106.81;;;9.91;100.00
43770;BME280;6597;52.218;9.882;2023-03-14T08:13:40;98114.09;;;9.99;100.00
43770;BME280;6597;52.218;9.882;2023-03-14T08:16:08;98113.63;;;10.05;100.00
43770;BME280;6597;52.218;9.882;2023-03-14T08:18:34;98124.50;;;10.12;100.00
43770;BME280;6597;52.218;9.882;2023-03-14T08:21:02;98119.69;;;10.29;100.00
43770;BME280;6597;52.218;9.882;2023-03-14T08:23:29;98130.16;;;10.29;100.00
43770;BME280;6597;52.218;9.882;2023-03-14T08:25:55;98137.44;;;10.26;100.00
43770;BME280;6597;52.218;9.882;2023-03-14T08:28:22;98137.38;;;10.15;100.00
43770;BME280;6597;52.218;9.882;2023-03-14T08:30:50;98144.88;;;10.08;100.00
43770;BME280;6597;52.218;9.882;2023-03-14T08:33:16;98149.88;;;10.11;100.00
43770;BME280;6597;52.218;9.882;2023-03-14T08:35:43;98158.06;;;10.07;100.00
43770;BME280;6597;52.218;9.882;2023-03-14T08:38:09;98148.50;;;9.94;100.00
43770;BME280;6597;52.218;9.882;2023-03-14T08:40:36;98151.56;;;9.88;100.00
43770;BME280;6597;52.218;9.882;2023-03-14T08:43:02;98145.63;;;9.86;100.00
43770;BME280;6597;52.218;9.882;2023-03-14T08:45:29;98141.56;;;9.82;100.00
43770;BME280;6597;52.218;9.882;2023-03-14T08:47:57;98130.00;;;9.85;100.00
43770;BME280;6597;52.218;9.882;2023-03-14T08:50:24;98129.09;;;9.97;100.00
43770;BME280;6597;52.218;9.882;2023-03-14T08:52:51;98132.44;;;9.99;100.00
43770;BME280;6597;52.218;9.882;2023-03-14T08:55:17;98128.63;;;10.03;100.00
43770;BME280;6597;52.218;9.882;2023-03-14T08:57:44;98139.72;;;10.07;100.00
43770;BME280;6597;52.218;9.882;2023-03-14T09:00:11;98126.47;;;10.21;100.00
43770;BME280;6597;52.218;9.882;2023-03-14T09:02:39;98141.38;;;10.32;100.00
43770;BME280;6597;52.218;9.882;2023-03-14T09:05:08;98146.78;;;10.41;100.00
43770;BME280;6597;52.218;9.882;2023-03-14T09:07:35;98137.72;;;10.45;100.00
43770;BME280;6597;52.218;9.882;2023-03-14T09:10:02;98133.78;;;10.51;100.00
43770;BME280;6597;52.218;9.882;2023-03-14T09:12:29;98132.13;;;10.50;100.00
43770;BME280;6597;52.218;9.882;2023-03-14T09:14:55;98125.09;;;10.50;100.00
43770;BME280;6597;52.218;9.882;2023-03-14T09:17:22;98120.78;;;10.60;100.00
43770;BME280;6597;52.218;9.882;2023-03-14T09:19:48;98122.00;;;10.79;100.00
43770;BME280;6597;52.218;9.882;2023-03-14T09:22:16;98120.56;;;11.08;98.72
43770;BME280;6597;52.218;9.882;2023-03-14T09:24:43;98117.28;;;11.38;95.36
43770;BME280;6597;52.218;9.882;2023-03-14T09:27:09;98121.50;;;11.62;94.90
43770;BME280;6597;52.218;9.882;2023-03-14T09:29:36;98120.69;;;11.93;92.65
43770;BME280;6597;52.218;9.882;2023-03-14T09:32:03;98115.03;;;12.60;89.30
43770;BME280;6597;52.218;9.882;2023-03-14T09:34:29;98117.63;;;12.71;87.45
43770;BME280;6597;52.218;9.882;2023-03-14T09:36:56;98114.97;;;13.02;85.25
43770;BME280;6597;52.218;9.882;2023-03-14T09:39:24;98119.06;;;13.25;84.34
43770;BME280;6597;52.218;9.882;2023-03-14T09:41:52;98120.03;;;13.24;84.54
43770;BME280;6597;52.218;9.882;2023-03-14T09:44:24;98116.53;;;13.14;84.09
43770;BME280;6597;52.218;9.882;2023-03-14T09:46:53;98108.28;;;12.67;84.34
43770;BME280;6597;52.218;9.882;2023-03-14T09:49:24;98122.75;;;12.52;87.21
43770;BME280;6597;52.218;9.882;2023-03-14T09:51:53;98119.13;;;12.43;86.79
43770;BME280;6597;52.218;9.882;2023-03-14T09:54:34;98109.16;;;12.47;86.10
43770;BME280;6597;52.218;9.882;2023-03-14T09:57:02;98127.19;;;12.52;86.29
43770;BME280;6597;52.218;9.882;2023-03-14T09:59:29;98116.41;;;12.34;85.38
43770;BME280;6597;52.218;9.882;2023-03-14T10:01:58;98133.44;;;12.09;87.59
43770;BME280;6597;52.218;9.882;2023-03-14T10:04:26;98136.44;;;12.04;89.70
43770;BME280;6597;52.218;9.882;2023-03-14T10:06:55;98132.59;;;12.08;89.60
43770;BME280;6597;52.218;9.882;2023-03-14T10:09:23;98136.94;;;11.98;89.42
43770;BME280;6597;52.218;9.882;2023-03-14T10:11:54;98128.69;;;11.60;92.95
43770;BME280;6597;52.218;9.882;2023-03-14T10:14:33;98131.13;;;11.29;98.46
43770;BME280;6597;52.218;9.882;2023-03-14T10:17:08;98129.97;;;11.22;99.87
43770;BME280;6597;52.218;9.882;2023-03-14T10:19:35;98145.94;;;11.41;100.00
43770;BME280;6597;52.218;9.882;2023-03-14T10:22:03;98127.13;;;11.57;97.82
43770;BME280;6597;52.218;9.882;2023-03-14T10:24:31;98120.28;;;11.66;95.75
43770;BME280;6597;52.218;9.882;2023-03-14T10:27:01;98131.47;;;11.90;94.84
43770;BME280;6597;52.218;9.882;2023-03-14T10:29:29;98132.06;;;12.56;93.68
43770;BME280;6597;52.218;9.882;2023-03-14T10:31:59;98132.91;;;12.57;88.64
43770;BME280;6597;52.218;9.882;2023-03-14T10:34:28;98132.19;;;12.55;88.57
43770;BME280;6597;52.218;9.882;2023-03-14T10:36:57;98127.66;;;12.36;88.53
43770;BME280;6597;52.218;9.882;2023-03-14T10:39:32;98135.88;;;12.42;89.67
43770;BME280;6597;52.218;9.882;2023-03-14T10:42:09;98125.66;;;13.41;85.07
43770;BME280;6597;52.218;9.882;2023-03-14T10:44:41;98127.63;;;14.16;78.87
43770;BME280;6597;52.218;9.882;2023-03-14T10:47:16;98129.56;;;14.14;78.84
43770;BME280;6597;52.218;9.882;2023-03-14T10:49:43;98133.19;;;13.93;79.00
43770;BME280;6597;52.218;9.882;2023-03-14T10:52:15;98128.88;;;13.73;79.47
43770;BME280;6597;52.218;9.882;2023-03-14T10:54:46;98135.69;;;13.85;79.11
43770;BME280;6597;52.218;9.882;2023-03-14T10:57:14;98135.69;;;13.85;78.40
43770;BME280;6597;52.218;9.882;2023-03-14T10:59:42;98132.06;;;13.77;76.93
43770;BME280;6597;52.218;9.882;2023-03-14T11:02:33;98117.47;;;13.53;76.38
43770;BME280;6597;52.218;9.882;2023-03-14T11:05:11;98125.47;;;13.32;79.21
43770;BME280;6597;52.218;9.882;2023-03-14T11:07:42;98131.69;;;13.22;80.27
43770;BME280;6597;52.218;9.882;2023-03-14T11:10:17;98130.44;;;12.95;81.78
43770;BME280;6597;52.218;9.882;2023-03-14T11:12:55;98132.34;;;12.84;84.33
43770;BME280;6597;52.218;9.882;2023-03-14T11:15:31;98137.25;;;12.67;87.08
43770;BME280;6597;52.218;9.882;2023-03-14T11:18:13;98127.72;;;12.45;89.69
43770;BME280;6597;52.218;9.882;2023-03-14T11:20:45;98139.84;;;12.88;91.45
43770;BME280;6597;52.218;9.882;2023-03-14T11:23:17;98143.66;;;13.05;87.48
43770;BME280;6597;52.218;9.882;2023-03-14T11:25:49;98132.03;;;13.07;82.74
43770;BME280;6597;52.218;9.882;2023-03-14T11:28:27;98130.38;;;13.06;83.51
43770;BME280;6597;52.218;9.882;2023-03-14T11:31:02;98129.97;;;13.11;83.91
43770;BME280;6597;52.218;9.882;2023-03-14T11:33:34;98138.78;;;13.00;81.49
43770;BME280;6597;52.218;9.882;2023-03-14T11:36:06;98136.50;;;12.86;84.29
43770;BME280;6597;52.218;9.882;2023-03-14T11:38:37;98148.16;;;12.63;87.12
43770;BME280;6597;52.218;9.882;2023-03-14T11:41:10;98186.97;;;12.40;90.27
43770;BME280;6597;52.218;9.882;2023-03-14T11:43:40;98257.53;;;10.91;92.01
43770;BME280;6597;52.218;9.882;2023-03-14T11:46:11;98275.59;;;9.01;98.54
43770;BME280;6597;52.218;9.882;2023-03-14T11:48:45;98296.44;;;7.97;100.00
43770;BME280;6597;52.218;9.882;2023-03-14T11:51:23;98296.91;;;7.20;100.00
43770;BME280;6597;52.218;9.882;2023-03-14T11:53:57;98309.66;;;6.66;100.00
43770;BME280;6597;52.218;9.882;2023-03-14T11:56:29;98332.53;;;6.31;100.00
43770;BME280;6597;52.218;9.882;2023-03-14T11:59:02;98333.44;;;6.14;100.00
43770;BME280;6597;52.218;9.882;2023-03-14T12:01:40;98350.59;;;6.02;100.00
43770;BME280;6597;52.218;9.882;2023-03-14T12:04:15;98359.78;;;5.93;100.00
43770;BME280;6597;52.218;9.882;2023-03-14T12:06:48;98376.31;;;5.92;100.00
43770;BME280;6597;52.218;9.882;2023-03-14T12:09:16;98389.78;;;5.83;100.00
43770;BME280;6597;52.218;9.882;2023-03-14T12:11:47;98412.94;;;5.72;100.00
43770;BME280;6597;52.218;9.882;2023-03-14T12:14:23;98432.09;;;5.71;100.00
43770;BME280;6597;52.218;9.882;2023-03-14T12:16:53;98442.22;;;5.60;100.00
43770;BME280;6597;52.218;9.882;2023-03-14T12:19:34;98451.72;;;5.44;100.00
43770;BME280;6597;52.218;9.882;2023-03-14T12:22:23;98469.03;;;5.27;100.00
43770;BME280;6597;52.218;9.882;2023-03-14T12:24:54;98484.78;;;5.07;100.00
43770;BME280;6597;52.218;9.882;2023-03-14T12:27:44;98497.25;;;5.00;100.00
43770;BME280;6597;52.218;9.882;2023-03-14T12:30:23;98519.88;;;4.80;100.00
43770;BME280;6597;52.218;9.882;2023-03-14T12:33:29;98534.19;;;4.33;100.00
43770;BME280;6597;52.218;9.882;2023-03-14T12:36:18;98554.00;;;4.16;100.00
43770;BME280;6597;52.218;9.882;2023-03-14T12:39:05;98569.75;;;3.92;100.00
43770;BME280;6597;52.218;9.882;2023-03-14T12:41:38;98595.81;;;3.89;100.00
43770;BME280;6597;52.218;9.882;2023-03-14T12:44:41;98608.16;;;3.84;100.00
43770;BME280;6597;52.218;9.882;2023-03-14T12:47:45;98617.69;;;3.84;100.00
43770;BME280;6597;52.218;9.882;2023-03-14T12:50:24;98601.41;;;3.80;100.00
43770;BME280;6597;52.218;9.882;2023-03-14T12:53:15;98637.72;;;3.80;100.00
43770;BME280;6597;52.218;9.882;2023-03-14T12:55:48;98660.31;;;3.78;100.00
43770;BME280;6597;52.218;9.882;2023-03-14T12:58:22;98682.16;;;3.72;100.00
43770;BME280;6597;52.218;9.882;2023-03-14T13:00:57;98668.53;;;3.67;100.00
43770;BME280;6597;52.218;9.882;2023-03-14T13:03:37;98665.22;;;3.64;100.00
43770;BME280;6597;52.218;9.882;2023-03-14T13:06:05;98676.44;;;3.64;100.00
43770;BME280;6597;52.218;9.882;2023-03-14T13:08:36;98672.22;;;3.62;100.00
43770;BME280;6597;52.218;9.882;2023-03-14T13:11:04;98697.47;;;3.58;100.00
43770;BME280;6597;52.218;9.882;2023-03-14T13:13:34;98727.84;;;3.55;100.00
43770;BME280;6597;52.218;9.882;2023-03-14T13:16:02;98732.97;;;3.56;100.00
43770;BME280;6597;52.218;9.882;2023-03-14T13:18:35;98760.13;;;3.69;100.00
43770;BME280;6597;52.218;9.882;2023-03-14T13:21:05;98768.81;;;3.68;100.00
43770;BME280;6597;52.218;9.882;2023-03-14T13:23:34;98768.72;;;3.71;100.00
43770;BME280;6597;52.218;9.882;2023-03-14T13:26:01;98780.28;;;3.85;100.00
43770;BME280;6597;52.218;9.882;2023-03-14T13:28:29;98782.09;;;4.04;100.00
43770;BME280;6597;52.218;9.882;2023-03-14T13:30:58;98785.66;;;4.24;100.00